Time;durP1;ratioP1;P1;durP2;ratioP2;P2;SDS_P1;SDS_P2;PMS_P1;PMS_P2;Temp;Humidity;BMP_temperature;BMP_pressure;BME280_temperature;BME280_humidity;BME280_pressure;Samples;Min_cycle;Max_cycle;Signal;HPM_P1;HPM_P2
2022/07/08 00:01:42;;;;;;;7.10;5.70;;;;;;;16.02;82.81;98147.48;105313;1284;25254;-82
2022/07/08 00:04:10;;;;;;;9.40;6.10;;;;;;;15.99;83.17;98153.17;105276;1284;22597;-83
2022/07/08 00:06:38;;;;;;;7.50;5.30;;;;;;;15.98;83.22;98149.41;105246;1284;22561;-82
2022/07/08 00:09:07;;;;;;;7.80;5.40;;;;;;;16.05;83.41;98151.38;105243;1284;22564;-82
2022/07/08 00:11:36;;;;;;;7.30;5.50;;;;;;;16.13;83.37;98149.84;105249;1285;22595;-83
2022/07/08 00:14:04;;;;;;;7.30;5.90;;;;;;;16.19;83.41;98147.42;105254;1284;22550;-83
2022/07/08 00:16:33;;;;;;;10.00;6.40;;;;;;;16.22;83.10;98147.09;105190;1284;22773;-82
2022/07/08 00:19:01;;;;;;;7.70;6.60;;;;;;;16.25;83.19;98141.14;105204;1284;23782;-82
2022/07/08 00:21:29;;;;;;;10.40;6.70;;;;;;;16.31;83.73;98142.95;105242;1284;22560;-82
2022/07/08 00:23:57;;;;;;;10.10;6.40;;;;;;;16.54;83.93;98141.23;105247;1284;22564;-83
2022/07/08 00:26:25;;;;;;;8.40;5.90;;;;;;;16.79;83.46;98140.86;105277;1284;23950;-82
2022/07/08 00:28:53;;;;;;;10.80;6.10;;;;;;;16.92;83.17;98142.73;105246;1284;24274;-82
2022/07/08 00:31:21;;;;;;;8.70;6.30;;;;;;;17.09;82.89;98142.23;105221;1284;24429;-82
2022/07/08 00:33:49;;;;;;;8.60;6.40;;;;;;;17.03;82.45;98147.01;105233;1284;22581;-83
2022/07/08 00:36:17;;;;;;;9.20;6.20;;;;;;;17.12;82.88;98148.81;105202;1284;25305;-82
2022/07/08 00:38:45;;;;;;;10.00;5.90;;;;;;;17.13;82.57;98148.92;105184;1285;22559;-82
2022/07/08 00:41:14;;;;;;;9.90;6.00;;;;;;;17.01;82.42;98154.94;105184;1284;25309;-83
2022/07/08 00:43:45;;;;;;;10.10;6.10;;;;;;;16.87;82.39;98157.23;105192;1285;22655;-82
2022/07/08 00:46:15;;;;;;;7.30;6.40;;;;;;;16.69;82.25;98155.54;105006;1287;22561;-82
2022/07/08 00:48:44;;;;;;;7.80;6.10;;;;;;;16.58;82.51;98156.84;105142;1285;25657;-82
2022/07/08 00:51:14;;;;;;;12.20;5.60;;;;;;;16.54;82.74;98158.80;105270;1284;25350;-82
2022/07/08 00:53:45;;;;;;;9.00;6.40;;;;;;;16.58;82.59;98157.15;105317;1284;25095;-82
2022/07/08 00:56:14;;;;;;;6.60;5.20;;;;;;;16.56;82.44;98156.91;105261;1285;25482;-82
2022/07/08 00:58:42;;;;;;;11.30;6.40;;;;;;;16.53;83.04;98149.89;105299;1284;22562;-82
2022/07/08 01:01:10;;;;;;;8.50;6.70;;;;;;;16.62;83.45;98151.84;105314;1284;24273;-81
2022/07/08 01:03:39;;;;;;;8.00;6.90;;;;;;;16.88;84.15;98153.29;105285;1284;25445;-82
2022/07/08 01:06:07;;;;;;;8.60;7.00;;;;;;;17.08;83.14;98151.38;105325;1284;23294;-80
2022/07/08 01:08:35;;;;;;;7.50;6.20;;;;;;;17.07;82.45;98153.11;106013;1284;22652;-82
2022/07/08 01:11:04;;;;;;;8.90;7.60;;;;;;;16.94;82.43;98152.91;105716;1284;25524;-83
2022/07/08 01:13:33;;;;;;;10.70;8.50;;;;;;;16.87;82.35;98156.14;105544;1284;25351;-82
2022/07/08 01:16:02;;;;;;;10.00;8.90;;;;;;;16.74;82.28;98157.01;105295;1284;22739;-82
2022/07/08 01:18:31;;;;;;;12.00;8.50;;;;;;;16.59;82.38;98154.10;105340;1284;22562;-82
2022/07/08 01:21:00;;;;;;;9.10;8.00;;;;;;;16.50;82.56;98155.61;105288;1284;22591;-82
2022/07/08 01:23:28;;;;;;;10.50;7.80;;;;;;;16.46;82.41;98157.62;105265;1284;22598;-82
2022/07/08 01:25:58;;;;;;;10.80;8.80;;;;;;;16.34;82.45;98156.55;105279;1284;22636;-82
2022/07/08 01:28:26;;;;;;;11.30;8.80;;;;;;;16.17;82.41;98159.84;105226;1284;22635;-82
2022/07/08 01:30:55;;;;;;;10.20;8.80;;;;;;;16.01;82.46;98162.41;105328;1284;22553;-81
2022/07/08 01:33:24;;;;;;;13.00;8.40;;;;;;;15.87;82.86;98162.19;105266;1284;22579;-83
2022/07/08 01:35:52;;;;;;;8.70;7.80;;;;;;;15.78;83.53;98164.39;105425;1285;22727;-83
2022/07/08 01:38:20;;;;;;;11.30;7.50;;;;;;;15.71;83.51;98161.08;105444;1284;25278;-82
2022/07/08 01:40:48;;;;;;;9.40;6.50;;;;;;;15.68;83.44;98162.10;105430;1284;22655;-83
2022/07/08 01:43:17;;;;;;;9.50;5.80;;;;;;;15.69;83.88;98159.41;105393;1284;22641;-82
2022/07/08 01:45:45;;;;;;;8.00;5.80;;;;;;;15.70;83.76;98158.05;105395;1284;24409;-82
2022/07/08 01:48:13;;;;;;;7.00;5.20;;;;;;;15.77;84.77;98158.58;105455;1284;22566;-83
2022/07/08 01:50:41;;;;;;;8.30;5.10;;;;;;;16.09;84.45;98158.36;105427;1284;22576;-83
2022/07/08 01:53:10;;;;;;;8.20;4.70;;;;;;;16.18;82.89;98161.92;105440;1284;22700;-82
2022/07/08 01:55:38;;;;;;;7.20;5.10;;;;;;;16.14;82.79;98159.84;105180;1284;24349;-83
2022/07/08 01:58:06;;;;;;;8.60;5.00;;;;;;;16.04;82.70;98159.52;105006;1286;22613;-83
2022/07/08 02:00:34;;;;;;;7.10;5.70;;;;;;;15.99;82.57;98162.86;105388;1284;25422;-83
2022/07/08 02:03:02;;;;;;;7.20;5.40;;;;;;;15.91;82.61;98164.20;105368;1284;22605;-82
2022/07/08 02:05:32;;;;;;;8.50;5.10;;;;;;;15.94;82.61;98166.23;105037;1285;25479;-82
2022/07/08 02:08:04;;;;;;;8.40;4.80;;;;;;;15.96;83.31;98169.30;104997;1284;22669;-82
2022/07/08 02:12:18;;;;;;;7.60;5.70;;;;;;;16.20;83.39;98174.52;105057;1285;24337;-82
2022/07/08 02:13:20;;;;;;;8.30;5.80;;;;;;;16.41;83.31;98174.39;105379;1284;22992;-80
2022/07/08 02:15:48;;;;;;;7.60;5.10;;;;;;;16.48;82.43;98181.41;105052;1285;25531;-83
2022/07/08 02:18:16;;;;;;;8.00;5.30;;;;;;;16.54;82.64;98177.30;105385;1284;24526;-81
2022/07/08 02:20:44;;;;;;;10.40;5.00;;;;;;;16.66;82.28;98183.94;105416;1285;24467;-82
2022/07/08 02:23:12;;;;;;;7.60;5.40;;;;;;;16.63;81.85;98184.79;106293;1284;22584;-82
2022/07/08 02:25:40;;;;;;;8.50;5.20;;;;;;;16.66;81.69;98187.14;105783;1284;22573;-82
2022/07/08 02:28:08;;;;;;;8.70;5.40;;;;;;;16.59;81.31;98190.17;105357;1284;22626;-82
2022/07/08 02:30:36;;;;;;;9.60;5.20;;;;;;;16.53;81.29;98198.46;105363;1284;22568;-81
2022/07/08 02:33:04;;;;;;;9.50;5.10;;;;;;;16.46;81.22;98198.29;105283;1285;25523;-82
2022/07/08 02:35:32;;;;;;;8.30;4.90;;;;;;;16.34;81.25;98199.36;105219;1284;25525;-82
2022/07/08 02:38:00;;;;;;;6.80;4.60;;;;;;;16.37;81.62;98204.07;105202;1284;23083;-82
2022/07/08 02:40:28;;;;;;;7.70;4.90;;;;;;;16.36;81.07;98206.98;105164;1284;25244;-82
2022/07/08 02:42:55;;;;;;;10.60;5.40;;;;;;;16.20;80.72;98207.46;105199;1284;24311;-82
2022/07/08 02:45:23;;;;;;;7.80;5.00;;;;;;;16.05;80.95;98209.09;105152;1284;22546;-82
2022/07/08 02:47:52;;;;;;;8.80;5.10;;;;;;;15.97;80.96;98212.04;105205;1284;22627;-81
2022/07/08 02:50:20;;;;;;;7.40;5.10;;;;;;;15.92;81.25;98213.07;105178;1284;24416;-83
2022/07/08 02:52:48;;;;;;;7.70;5.00;;;;;;;15.88;81.31;98214.26;105202;1284;25278;-82
2022/07/08 02:55:16;;;;;;;8.20;5.60;;;;;;;15.89;81.24;98216.77;105181;1284;22563;-82
2022/07/08 02:57:44;;;;;;;8.50;4.90;;;;;;;15.94;82.17;98218.07;105053;1286;22554;-83
2022/07/08 03:00:12;;;;;;;8.30;5.30;;;;;;;16.03;80.92;98220.20;105379;1285;22538;-83
2022/07/08 03:02:40;;;;;;;9.70;5.00;;;;;;;15.90;80.76;98225.02;105306;1285;23302;-82
2022/07/08 03:05:08;;;;;;;11.10;5.00;;;;;;;15.79;81.20;98226.75;105352;1284;22697;-82
2022/07/08 03:07:36;;;;;;;7.10;5.10;;;;;;;15.71;80.97;98231.08;105019;1286;23985;-82
2022/07/08 03:10:05;;;;;;;7.50;5.40;;;;;;;15.56;81.03;98232.73;105330;1284;22541;-82
2022/07/08 03:12:32;;;;;;;7.90;5.50;;;;;;;15.47;81.12;98235.25;105356;1284;22535;-83
2022/07/08 03:15:00;;;;;;;7.70;4.90;;;;;;;15.38;81.66;98235.02;105338;1285;22705;-81
2022/07/08 03:17:28;;;;;;;9.00;5.00;;;;;;;15.34;81.74;98237.85;105365;1284;26790;-81
2022/07/08 03:19:56;;;;;;;8.90;5.40;;;;;;;15.29;81.80;98240.51;105336;1284;24655;-83
2022/07/08 03:22:24;;;;;;;8.50;5.40;;;;;;;15.26;81.74;98237.03;105326;1284;24229;-84
2022/07/08 03:24:52;;;;;;;8.20;5.40;;;;;;;15.20;81.76;98240.20;105380;1284;22576;-83
2022/07/08 03:27:20;;;;;;;9.00;6.30;;;;;;;15.17;82.22;98239.20;105378;1284;22574;-82
2022/07/08 03:29:48;;;;;;;7.40;5.20;;;;;;;15.22;82.00;98240.66;105341;1284;22589;-83
2022/07/08 03:32:16;;;;;;;7.90;5.40;;;;;;;15.21;81.89;98243.20;105237;1284;24220;-82
2022/07/08 03:34:44;;;;;;;9.20;6.60;;;;;;;15.24;82.14;98240.06;105535;1284;22566;-81
2022/07/08 03:37:11;;;;;;;13.30;7.80;;;;;;;15.38;83.90;98241.30;106149;1284;22567;-81
2022/07/08 03:39:39;;;;;;;9.60;5.00;;;;;;;15.67;82.85;98246.34;105463;1284;24904;-82
2022/07/08 03:42:07;;;;;;;6.60;5.00;;;;;;;15.88;82.66;98249.48;105351;1284;22565;-82
2022/07/08 03:44:35;;;;;;;7.30;5.60;;;;;;;16.12;82.34;98249.77;105211;1284;24280;-82
2022/07/08 03:47:03;;;;;;;6.50;5.20;;;;;;;16.12;81.37;98257.94;105182;1284;22575;-81
2022/07/08 03:49:31;;;;;;;8.00;5.40;;;;;;;16.05;81.24;98260.97;105205;1284;22577;-80
2022/07/08 03:51:59;;;;;;;7.10;5.30;;;;;;;15.99;81.07;98262.43;105162;1284;25651;-81
2022/07/08 03:54:28;;;;;;;6.90;5.00;;;;;;;15.91;81.32;98263.84;105165;1284;22674;-81
2022/07/08 03:56:56;;;;;;;8.50;5.40;;;;;;;15.96;81.49;98267.88;105190;1284;22636;-82
2022/07/08 03:59:24;;;;;;;9.90;4.90;;;;;;;16.05;81.33;98269.54;105164;1284;24262;-82
2022/07/08 04:01:52;;;;;;;7.20;5.40;;;;;;;16.12;81.58;98272.36;105132;1284;24179;-82
2022/07/08 04:04:20;;;;;;;9.00;5.60;;;;;;;16.16;81.36;98274.17;105258;1284;22569;-82
2022/07/08 04:06:48;;;;;;;17.60;6.20;;;;;;;16.18;81.21;98273.84;105290;1284;24277;-83
2022/07/08 04:09:17;;;;;;;8.00;5.20;;;;;;;16.25;81.15;98271.02;105296;1284;25243;-82
2022/07/08 04:11:45;;;;;;;10.40;5.80;;;;;;;16.21;80.62;98275.61;105225;1285;24487;-85
2022/07/08 04:14:13;;;;;;;9.00;5.80;;;;;;;16.20;80.73;98279.36;105331;1284;27813;-83
2022/07/08 04:16:40;;;;;;;10.70;6.70;;;;;;;16.13;80.64;98280.35;105298;1284;25409;-81
2022/07/08 04:19:08;;;;;;;7.00;5.60;;;;;;;16.10;80.57;98282.46;105245;1284;24416;-82
2022/07/08 04:21:36;;;;;;;9.60;5.50;;;;;;;16.00;80.42;98284.59;105228;1284;22565;-82
2022/07/08 04:24:04;;;;;;;10.00;4.90;;;;;;;15.91;80.56;98292.95;105173;1284;24101;-83
2022/07/08 04:26:32;;;;;;;8.10;5.40;;;;;;;15.93;80.63;98293.23;105163;1284;22555;-83
2022/07/08 04:29:01;;;;;;;8.20;5.90;;;;;;;15.88;80.55;98295.91;105191;1284;22553;-83
2022/07/08 04:31:29;;;;;;;10.10;6.70;;;;;;;15.87;80.58;98293.77;105152;1284;22569;-83
2022/07/08 04:33:57;;;;;;;9.70;6.60;;;;;;;15.85;80.48;98293.77;105262;1284;23955;-83
2022/07/08 04:36:25;;;;;;;8.40;6.60;;;;;;;15.84;80.67;98297.33;105324;1284;22645;-82
2022/07/08 04:38:53;;;;;;;8.60;5.90;;;;;;;15.82;80.42;98304.61;105347;1284;24223;-82
2022/07/08 04:41:21;;;;;;;8.70;6.30;;;;;;;15.82;80.59;98303.27;105294;1284;26234;-82
2022/07/08 04:43:49;;;;;;;8.80;6.20;;;;;;;15.80;80.66;98308.15;105324;1284;22645;-80
2022/07/08 04:46:17;;;;;;;9.90;6.10;;;;;;;15.74;80.63;98309.81;105376;1284;22563;-83
2022/07/08 04:48:45;;;;;;;8.60;5.70;;;;;;;15.63;80.60;98311.90;105203;1284;22563;-83
2022/07/08 04:51:13;;;;;;;9.70;6.10;;;;;;;15.56;81.23;98309.95;105171;1284;22709;-81
2022/07/08 04:53:41;;;;;;;7.80;5.40;;;;;;;15.50;81.05;98311.40;105198;1284;23986;-81
2022/07/08 04:56:09;;;;;;;10.60;5.90;;;;;;;15.49;81.25;98310.41;105231;1283;24319;-81
2022/07/08 04:58:37;;;;;;;8.30;5.50;;;;;;;15.49;81.37;98310.86;105302;1284;24226;-81
2022/07/08 05:01:05;;;;;;;7.90;5.80;;;;;;;15.51;81.70;98310.58;105283;1284;25359;-81
2022/07/08 05:03:33;;;;;;;7.60;5.20;;;;;;;15.56;81.86;98308.98;105314;1284;22575;-82
2022/07/08 05:06:03;;;;;;;8.00;5.40;;;;;;;15.75;81.82;98315.45;105224;1284;22568;-80
2022/07/08 05:08:31;;;;;;;7.30;4.50;;;;;;;15.97;82.03;98310.88;105193;1284;24323;-82
2022/07/08 05:10:59;;;;;;;8.60;5.90;;;;;;;16.25;81.74;98315.93;105173;1284;22656;-83
2022/07/08 05:13:27;;;;;;;9.70;5.90;;;;;;;16.26;81.00;98320.63;105385;1284;23606;-82
2022/07/08 05:15:55;;;;;;;9.40;6.10;;;;;;;16.21;80.71;98326.41;105329;1284;22570;-83
2022/07/08 05:18:23;;;;;;;8.40;5.90;;;;;;;16.20;81.04;98332.36;105300;1284;22586;-82
2022/07/08 05:20:51;;;;;;;8.10;5.60;;;;;;;16.15;80.99;98337.66;105271;1284;22584;-82
2022/07/08 05:23:19;;;;;;;9.50;5.40;;;;;;;16.06;81.02;98342.31;105313;1284;22823;-82
2022/07/08 05:25:47;;;;;;;7.60;5.20;;;;;;;16.03;81.10;98339.80;105236;1285;22567;-83
2022/07/08 05:28:15;;;;;;;9.20;5.20;;;;;;;16.03;81.34;98340.89;105272;1285;22666;-82
2022/07/08 05:30:43;;;;;;;10.40;6.20;;;;;;;15.98;81.25;98340.30;105359;1284;24358;-84
2022/07/08 05:33:11;;;;;;;7.70;5.30;;;;;;;15.99;81.38;98340.59;105113;1285;22544;-80
2022/07/08 05:35:39;;;;;;;9.70;5.40;;;;;;;16.02;81.43;98344.40;105194;1284;22551;-80
2022/07/08 05:38:07;;;;;;;8.60;5.30;;;;;;;16.08;81.43;98340.39;105187;1284;24320;-79
2022/07/08 05:40:35;;;;;;;13.70;5.50;;;;;;;16.13;81.43;98343.65;105147;1284;22626;-79
2022/07/08 05:43:04;;;;;;;8.80;6.60;;;;;;;16.21;81.54;98348.46;105209;1284;25386;-82
2022/07/08 05:45:32;;;;;;;8.60;5.70;;;;;;;16.23;81.41;98344.06;105414;1284;22575;-81
2022/07/08 05:48:00;;;;;;;7.40;5.70;;;;;;;16.27;81.44;98345.69;105318;1284;22563;-81
2022/07/08 05:50:27;;;;;;;8.00;5.70;;;;;;;16.31;81.39;98347.95;105310;1284;22579;-82
2022/07/08 05:52:55;;;;;;;7.80;6.20;;;;;;;16.37;81.27;98348.34;105300;1283;22633;-82
2022/07/08 05:55:23;;;;;;;8.40;6.50;;;;;;;16.41;81.08;98349.98;105322;1284;24372;-82
2022/07/08 05:57:51;;;;;;;7.30;6.50;;;;;;;16.47;81.07;98355.46;105314;1285;22649;-82
2022/07/08 06:00:21;;;;;;;7.30;5.90;;;;;;;16.53;80.96;98356.88;105385;1284;22562;-82
2022/07/08 06:02:49;;;;;;;7.30;6.20;;;;;;;16.63;80.93;98350.83;105346;1285;24731;-81
2022/07/08 06:05:17;;;;;;;8.70;5.80;;;;;;;16.70;80.32;98353.35;105309;1285;22557;-83
2022/07/08 06:07:45;;;;;;;10.40;6.70;;;;;;;16.86;80.46;98355.95;105493;1284;22695;-84
2022/07/08 06:10:13;;;;;;;9.10;6.20;;;;;;;17.10;79.96;98358.05;105526;1284;22700;-82
2022/07/08 06:12:41;;;;;;;8.10;6.30;;;;;;;17.32;79.52;98360.82;105058;1285;22532;-84
2022/07/08 06:15:13;;;;;;;7.20;6.40;;;;;;;17.51;78.38;98365.42;105398;1284;22605;-83
2022/07/08 06:17:42;;;;;;;7.50;6.50;;;;;;;17.58;77.49;98368.73;105380;1284;22563;-83
2022/07/08 06:20:12;;;;;;;8.80;7.10;;;;;;;17.64;76.03;98367.17;105415;1284;22554;-83
2022/07/08 06:22:48;;;;;;;9.30;6.60;;;;;;;17.75;75.76;98366.07;105474;1284;25766;-82
2022/07/08 06:25:16;;;;;;;8.00;6.20;;;;;;;17.80;75.16;98366.52;105452;1284;22666;-83
2022/07/08 06:27:44;;;;;;;9.20;5.50;;;;;;;17.95;76.21;98360.51;105487;1284;24436;-85
2022/07/08 06:30:13;;;;;;;9.80;6.10;;;;;;;18.25;76.64;98365.13;105449;1285;25296;-85
2022/07/08 06:32:41;;;;;;;9.70;6.50;;;;;;;18.48;75.44;98355.84;105466;1284;22569;-84
2022/07/08 06:35:10;;;;;;;8.70;6.00;;;;;;;18.53;75.29;98356.73;105476;1284;23402;-82
2022/07/08 06:37:39;;;;;;;10.50;7.00;;;;;;;18.65;73.50;98361.23;105450;1284;24305;-82
2022/07/08 06:40:07;;;;;;;7.50;5.90;;;;;;;18.67;74.00;98362.46;105234;1286;24435;-83
2022/07/08 06:42:35;;;;;;;10.70;6.40;;;;;;;18.84;73.16;98368.79;105488;1284;22578;-84
2022/07/08 06:45:06;;;;;;;13.00;6.80;;;;;;;18.91;72.67;98374.32;105535;1284;22606;-83
2022/07/08 06:47:34;;;;;;;10.50;6.10;;;;;;;18.96;72.05;98374.66;105419;1284;22629;-83
2022/07/08 06:50:02;;;;;;;9.20;6.00;;;;;;;19.02;71.29;98375.88;105410;1284;22550;-84
2022/07/08 06:52:33;;;;;;;9.60;6.10;;;;;;;19.05;71.00;98377.75;105555;1284;23986;-84
2022/07/08 06:55:02;;;;;;;12.30;6.50;;;;;;;19.09;71.55;98381.50;105547;1284;24316;-84
2022/07/08 06:57:30;;;;;;;9.20;6.40;;;;;;;19.17;70.84;98384.02;105329;1285;22552;-84
2022/07/08 06:59:58;;;;;;;9.30;5.90;;;;;;;19.12;70.36;98387.39;105574;1284;23291;-83
2022/07/08 07:02:46;;;;;;;14.00;7.70;;;;;;;19.03;70.67;98387.73;105583;1284;25561;-83
2022/07/08 07:05:14;;;;;;;8.70;6.60;;;;;;;19.00;70.63;98388.20;105524;1284;22576;-83
2022/07/08 07:07:42;;;;;;;10.70;7.10;;;;;;;18.92;69.99;98390.76;105551;1284;22706;-81
2022/07/08 07:10:10;;;;;;;11.60;7.10;;;;;;;18.81;70.73;98391.41;105345;1285;25241;-83
2022/07/08 07:12:38;;;;;;;13.00;6.50;;;;;;;18.80;70.52;98391.77;105887;1284;25365;-84
2022/07/08 07:15:07;;;;;;;12.00;6.60;;;;;;;18.82;71.02;98385.98;105465;1284;22598;-83
2022/07/08 07:17:35;;;;;;;10.80;6.70;;;;;;;18.91;71.15;98389.63;105347;1283;24306;-83
2022/07/08 07:20:03;;;;;;;11.20;6.40;;;;;;;18.97;70.77;98386.30;105648;1284;25290;-80
2022/07/08 07:22:31;;;;;;;11.60;7.00;;;;;;;18.91;70.36;98382.35;105387;1284;22873;-84
2022/07/08 07:24:59;;;;;;;16.10;7.90;;;;;;;18.85;70.78;98383.56;105638;1284;22679;-83
2022/07/08 07:27:27;;;;;;;14.30;8.40;;;;;;;18.78;71.05;98383.73;105586;1284;26555;-83
2022/07/08 07:29:55;;;;;;;13.50;8.10;;;;;;;18.73;71.32;98390.52;105587;1284;22563;-84
2022/07/08 07:32:23;;;;;;;25.40;8.00;;;;;;;18.69;71.30;98388.89;105564;1284;22565;-84
2022/07/08 07:34:51;;;;;;;10.70;7.30;;;;;;;18.73;71.61;98388.51;105369;1285;22734;-84
2022/07/08 07:37:19;;;;;;;12.40;8.10;;;;;;;18.80;71.60;98391.40;105364;1284;22554;-83
2022/07/08 07:39:47;;;;;;;15.70;8.70;;;;;;;18.84;71.28;98395.73;105597;1284;22572;-84
2022/07/08 07:42:15;;;;;;;19.20;7.80;;;;;;;18.86;71.52;98394.20;105669;1284;22581;-83
2022/07/08 07:44:43;;;;;;;17.40;9.50;;;;;;;18.90;70.68;98397.17;105613;1284;24433;-84
2022/07/08 07:47:10;;;;;;;17.90;9.90;;;;;;;18.76;70.61;98400.91;105448;1284;22562;-84
2022/07/08 07:49:39;;;;;;;16.80;9.20;;;;;;;18.67;70.89;98399.35;105543;1284;22617;-84
2022/07/08 07:52:06;;;;;;;11.90;9.50;;;;;;;18.77;70.59;98401.25;105522;1284;24226;-83
2022/07/08 07:54:34;;;;;;;12.00;7.90;;;;;;;18.85;70.28;98403.17;105555;1285;25287;-83
2022/07/08 07:57:02;;;;;;;14.30;8.40;;;;;;;19.05;69.69;98400.92;105410;1284;25366;-83
2022/07/08 07:59:31;;;;;;;9.90;7.30;;;;;;;19.19;68.82;98404.08;105394;1286;24305;-83
2022/07/08 08:01:59;;;;;;;14.80;7.20;;;;;;;19.36;69.44;98401.79;105575;1284;22699;-82
2022/07/08 08:04:27;;;;;;;14.50;7.70;;;;;;;19.62;69.10;98400.29;105588;1284;25377;-83
2022/07/08 08:06:55;;;;;;;12.50;7.70;;;;;;;19.81;68.88;98395.16;105502;1284;22532;-82
2022/07/08 08:09:23;;;;;;;12.40;7.90;;;;;;;19.98;69.53;98395.71;105518;1284;22561;-82
2022/07/08 08:11:51;;;;;;;11.90;7.00;;;;;;;20.28;69.29;98390.48;105615;1284;22564;-84
2022/07/08 08:14:19;;;;;;;13.60;7.50;;;;;;;20.52;67.73;98387.33;105409;1284;22712;-81
2022/07/08 08:16:47;;;;;;;18.00;7.10;;;;;;;20.53;66.85;98389.60;105198;1285;23098;-80
2022/07/08 08:19:15;;;;;;;17.90;7.80;;;;;;;20.48;66.90;98390.94;105575;1284;25367;-82
2022/07/08 08:21:43;;;;;;;10.30;5.90;;;;;;;20.28;65.76;98395.90;105585;1284;25202;-82
2022/07/08 08:24:11;;;;;;;10.20;5.60;;;;;;;19.98;65.95;98398.66;106017;1284;22561;-82
2022/07/08 08:26:39;;;;;;;9.70;5.00;;;;;;;19.66;66.49;98403.00;105890;1284;24372;-83
2022/07/08 08:29:07;;;;;;;8.80;5.50;;;;;;;19.39;66.52;98402.27;105532;1284;24102;-84
2022/07/08 08:31:35;;;;;;;7.00;4.60;;;;;;;19.13;67.09;98405.67;105420;1284;25480;-85
2022/07/08 08:34:03;;;;;;;10.80;5.60;;;;;;;19.03;67.47;98411.45;105385;1284;24225;-82
2022/07/08 08:36:31;;;;;;;16.00;7.00;;;;;;;18.92;67.77;98410.55;105591;1284;22666;-83
2022/07/08 08:38:59;;;;;;;15.50;6.80;;;;;;;18.77;68.03;98410.38;105641;1284;22568;-82
2022/07/08 08:41:28;;;;;;;12.10;7.00;;;;;;;18.67;68.31;98403.56;105596;1284;25320;-81
2022/07/08 08:43:56;;;;;;;13.90;7.40;;;;;;;18.60;68.68;98407.92;105605;1285;22706;-84
2022/07/08 08:46:24;;;;;;;11.10;6.20;;;;;;;18.71;69.08;98406.27;105560;1284;22704;-81
2022/07/08 08:49:02;;;;;;;13.20;6.80;;;;;;;18.97;68.70;98406.73;105487;1284;25250;-80
2022/07/08 08:51:34;;;;;;;11.40;6.50;;;;;;;19.15;68.72;98410.36;105430;1284;22572;-83
2022/07/08 08:54:04;;;;;;;11.70;6.50;;;;;;;19.31;68.98;98403.26;105479;1284;22998;-80
2022/07/08 08:56:33;;;;;;;13.50;6.20;;;;;;;19.52;68.57;98403.67;105517;1284;22797;-79
2022/07/08 08:59:02;;;;;;;9.40;5.30;;;;;;;19.63;68.50;98405.71;105508;1284;22970;-78
2022/07/08 09:01:30;;;;;;;11.70;5.60;;;;;;;19.75;68.58;98401.64;105521;1284;24379;-81
2022/07/08 09:04:12;;;;;;;11.10;5.20;;;;;;;20.09;68.03;98399.06;105588;1284;22549;-81
2022/07/08 09:06:40;;;;;;;8.10;4.30;;;;;;;20.37;68.65;98396.37;105499;1284;22599;-81
2022/07/08 09:09:08;;;;;;;7.90;4.80;;;;;;;20.76;67.79;98393.92;105466;1284;24280;-81
2022/07/08 09:11:39;;;;;;;10.20;5.70;;;;;;;21.07;67.83;98394.28;105530;1284;25497;-83
2022/07/08 09:14:23;;;;;;;10.30;5.00;;;;;;;21.55;67.43;98391.92;105577;1284;22817;-80
2022/07/08 09:17:16;;;;;;;10.60;5.40;;;;;;;21.97;66.19;98388.93;105467;1284;26720;-79
2022/07/08 09:19:48;;;;;;;7.50;3.80;;;;;;;22.25;65.83;98390.20;105683;1284;22807;-82
2022/07/08 09:22:22;;;;;;;4.20;2.60;;;;;;;22.42;60.78;98389.57;105642;1284;22979;-85
2022/07/08 09:24:50;;;;;;;4.00;2.60;;;;;;;22.11;59.39;98395.49;105662;1284;25306;-84
2022/07/08 09:27:18;;;;;;;5.80;2.50;;;;;;;21.81;59.29;98400.95;105543;1284;22570;-85
2022/07/08 09:30:00;;;;;;;5.60;2.50;;;;;;;21.50;58.56;98399.88;105638;1284;25336;-84
2022/07/08 09:32:28;;;;;;;2.70;2.40;;;;;;;21.26;58.66;98400.05;105659;1284;22720;-88
2022/07/08 09:34:56;;;;;;;4.80;2.50;;;;;;;21.10;59.44;98400.21;105610;1285;23092;-85
2022/07/08 09:37:24;;;;;;;7.50;3.60;;;;;;;21.04;59.91;98396.80;105610;1284;22561;-88
2022/07/08 09:39:52;;;;;;;8.10;4.40;;;;;;;20.96;59.45;98398.09;105543;1284;24101;-88
2022/07/08 09:42:20;;;;;;;7.60;5.10;;;;;;;20.84;60.06;98397.03;105707;1284;23949;-84
2022/07/08 09:44:54;;;;;;;6.20;4.10;;;;;;;20.63;60.58;98400.42;105460;1284;22655;-85
2022/07/08 09:47:22;;;;;;;11.00;5.40;;;;;;;20.39;60.91;98400.55;105677;1284;22680;-87
2022/07/08 09:49:58;;;;;;;7.90;4.70;;;;;;;20.17;61.54;98403.04;107145;1274;22572;31
2022/07/08 09:52:26;;;;;;;6.80;4.40;;;;;;;20.01;62.00;98398.66;108445;1272;22593;-88
2022/07/08 09:55:01;;;;;;;9.70;5.00;;;;;;;19.86;62.04;98389.52;109186;1272;22841;31
2022/07/08 09:57:37;;;;;;;6.90;4.60;;;;;;;19.84;62.21;98392.13;109115;1272;22826;31
2022/07/08 10:00:12;;;;;;;8.40;5.00;;;;;;;19.78;62.34;98398.35;108181;1274;23028;31
2022/07/08 10:02:41;;;;;;;9.80;4.80;;;;;;;19.72;62.47;98391.71;108743;1270;22639;-90
2022/07/08 10:05:17;;;;;;;6.60;4.60;;;;;;;19.76;62.46;98394.45;108983;1275;22606;31
2022/07/08 10:07:53;;;;;;;7.50;4.80;;;;;;;19.80;62.62;98388.02;108925;1274;22677;31
2022/07/08 10:10:32;;;;;;;7.50;4.50;;;;;;;19.88;62.23;98392.08;108795;1273;22673;31
2022/07/08 10:13:01;;;;;;;10.80;4.90;;;;;;;19.99;62.31;98387.46;108298;1284;22566;-90
2022/07/08 10:15:32;;;;;;;7.30;4.30;;;;;;;20.13;62.41;98379.31;107868;1285;22781;-92
2022/07/08 10:18:05;;;;;;;6.20;4.20;;;;;;;20.30;61.92;98379.14;108135;1284;22861;-89
2022/07/08 10:20:47;;;;;;;5.90;3.80;;;;;;;20.54;62.18;98379.08;109133;1272;22370;31
2022/07/08 10:26:31;;;;;;;6.80;4.00;;;;;;;21.06;61.28;98368.66;107598;1274;22637;-88
2022/07/08 10:29:08;;;;;;;8.10;3.90;;;;;;;21.10;60.40;98372.13;107611;1285;23935;-90
2022/07/08 10:31:53;;;;;;;5.70;3.70;;;;;;;21.01;59.97;98376.52;107520;1285;23023;-90
2022/07/08 10:37:59;;;;;;;4.10;2.60;;;;;;;20.96;60.31;98372.48;109079;1274;22899;31
2022/07/08 10:40:41;;;;;;;3.30;2.40;;;;;;;20.86;59.40;98376.88;108668;1274;24072;31
2022/07/08 10:43:18;;;;;;;4.10;2.50;;;;;;;20.73;58.24;98374.52;108523;1274;22636;-91
2022/07/08 10:46:12;;;;;;;3.20;2.70;;;;;;;20.67;58.47;98371.64;108556;1283;22501;-90
2022/07/08 10:48:40;;;;;;;2.70;2.40;;;;;;;20.87;59.04;98371.91;108081;1284;22530;-90
2022/07/08 10:51:17;;;;;;;4.40;2.80;;;;;;;21.08;57.08;98370.80;108040;1284;22578;-92
2022/07/08 10:54:05;;;;;;;2.90;2.60;;;;;;;21.40;55.77;98372.89;107607;1284;22572;-92
2022/07/08 10:56:58;;;;;;;3.10;2.80;;;;;;;21.67;55.21;98382.79;107755;1284;23791;-88
2022/07/08 10:59:31;;;;;;;6.30;3.90;;;;;;;21.82;54.84;98368.96;108164;1284;22501;-86
2022/07/08 11:02:16;;;;;;;5.60;4.00;;;;;;;21.65;56.30;98387.68;107594;1284;22498;-91
2022/07/08 11:04:45;;;;;;;;;;;;;;;21.28;57.62;98391.02;107448;1284;22562;-92
2022/07/08 11:09:57;;;;;;;4.80;4.10;;;;;;;20.60;58.77;98394.60;107376;1284;22562;-91
2022/07/08 11:12:29;;;;;;;4.70;4.30;;;;;;;20.27;60.60;98402.05;106259;1284;22567;-92
2022/07/08 11:14:59;;;;;;;6.20;4.50;;;;;;;19.66;64.91;98408.16;106125;1287;23573;-90
2022/07/08 11:17:30;;;;;;;5.00;4.50;;;;;;;19.09;68.09;98414.30;106821;1285;24246;-91
2022/07/08 11:20:09;;;;;;;4.70;4.20;;;;;;;18.69;70.95;98417.73;107520;1285;22568;-92
2022/07/08 11:22:38;;;;;;;5.60;4.30;;;;;;;18.30;72.66;98419.45;107283;1285;22600;-90
2022/07/08 11:25:10;;;;;;;5.40;4.90;;;;;;;18.07;73.77;98425.03;107235;1285;22607;-90
2022/07/08 11:27:38;;;;;;;6.30;5.70;;;;;;;17.89;75.96;98423.46;106810;1287;23986;-90
2022/07/08 11:30:11;;;;;;;5.60;5.10;;;;;;;17.72;78.02;98429.77;106342;1285;25361;-88
2022/07/08 11:32:41;;;;;;;9.20;5.40;;;;;;;17.53;79.58;98425.70;105809;1287;22559;-89
2022/07/08 11:35:09;;;;;;;6.10;5.00;;;;;;;17.48;79.43;98418.90;106075;1284;22558;-86
2022/07/08 11:37:41;;;;;;;5.70;5.10;;;;;;;17.58;79.80;98414.73;105742;1284;24302;-87
2022/07/08 11:40:11;;;;;;;5.30;4.50;;;;;;;17.71;80.60;98411.33;105686;1285;24458;-85
2022/07/08 11:42:40;;;;;;;4.40;4.00;;;;;;;17.77;80.84;98430.31;105655;1284;22680;-84
2022/07/08 11:45:11;;;;;;;4.70;3.70;;;;;;;17.95;80.74;98416.89;105718;1285;23105;-86